sensor_id;sensor_type;location;lat;lon;timestamp;pressure;altitude;pressure_sealevel;temperature;humidity
63399;BME280;49533;-34.520;150.798;2023-12-14T00:01:15;99412.66;;;28.97;50.09
63399;BME280;49533;-34.520;150.798;2023-12-14T00:03:43;99431.88;;;29.17;49.95
63399;BME280;49533;-34.520;150.798;2023-12-14T00:06:13;99440.16;;;29.39;49.15
63399;BME280;49533;-34.520;150.798;2023-12-14T00:08:40;99401.59;;;29.34;47.77
63399;BME280;49533;-34.520;150.798;2023-12-14T00:11:09;99386.06;;;29.24;48.19
63399;BME280;49533;-34.520;150.798;2023-12-14T00:13:37;99419.53;;;29.55;47.07
63399;BME280;49533;-34.520;150.798;2023-12-14T00:16:05;99384.56;;;29.51;46.34
63399;BME280;49533;-34.520;150.798;2023-12-14T00:18:33;99419.75;;;29.79;46.60
63399;BME280;49533;-34.520;150.798;2023-12-14T00:21:00;99368.38;;;29.55;46.36
63399;BME280;49533;-34.520;150.798;2023-12-14T00:23:27;99367.16;;;29.56;45.72
63399;BME280;49533;-34.520;150.798;2023-12-14T00:25:55;99396.09;;;29.89;45.84
63399;BME280;49533;-34.520;150.798;2023-12-14T00:28:22;99386.75;;;29.83;45.48
63399;BME280;49533;-34.520;150.798;2023-12-14T00:30:50;99419.13;;;30.12;45.35
63399;BME280;49533;-34.520;150.798;2023-12-14T00:33:17;99403.09;;;30.03;46.43
63399;BME280;49533;-34.520;150.798;2023-12-14T00:35:44;99413.97;;;30.10;46.84
63399;BME280;49533;-34.520;150.798;2023-12-14T00:38:11;99417.72;;;30.07;46.82
63399;BME280;49533;-34.520;150.798;2023-12-14T00:40:38;99390.19;;;29.97;47.51
63399;BME280;49533;-34.520;150.798;2023-12-14T00:43:08;99402.94;;;29.98;47.65
63399;BME280;49533;-34.520;150.798;2023-12-14T00:45:35;99401.84;;;30.04;47.43
63399;BME280;49533;-34.520;150.798;2023-12-14T00:48:03;99380.53;;;29.88;47.41
63399;BME280;49533;-34.520;150.798;2023-12-14T00:50:30;99392.19;;;29.96;47.17
63399;BME280;49533;-34.520;150.798;2023-12-14T00:52:57;99358.94;;;29.80;46.95
63399;BME280;49533;-34.520;150.798;2023-12-14T00:55:24;99331.69;;;29.62;46.99
63399;BME280;49533;-34.520;150.798;2023-12-14T00:57:52;99376.47;;;29.99;46.85
63399;BME280;49533;-34.520;150.798;2023-12-14T01:00:19;99382.72;;;30.03;46.90
63399;BME280;49533;-34.520;150.798;2023-12-14T01:02:46;99370.75;;;30.02;47.42
63399;BME280;49533;-34.520;150.798;2023-12-14T01:05:14;99347.38;;;29.96;47.18
63399;BME280;49533;-34.520;150.798;2023-12-14T01:07:41;99359.81;;;30.13;46.62
63399;BME280;49533;-34.520;150.798;2023-12-14T01:10:08;99345.66;;;29.99;46.80
63399;BME280;49533;-34.520;150.798;2023-12-14T01:12:35;99345.34;;;30.06;46.76
63399;BME280;49533;-34.520;150.798;2023-12-14T01:15:04;99364.00;;;30.18;47.19
63399;BME280;49533;-34.520;150.798;2023-12-14T01:17:31;99350.31;;;30.20;46.59
63399;BME280;49533;-34.520;150.798;2023-12-14T01:20:05;99363.06;;;30.21;46.59
63399;BME280;49533;-34.520;150.798;2023-12-14T01:22:33;99319.56;;;30.02;46.25
63399;BME280;49533;-34.520;150.798;2023-12-14T01:25:01;99330.72;;;30.20;46.04
63399;BME280;49533;-34.520;150.798;2023-12-14T01:27:28;99347.50;;;30.29;45.49
63399;BME280;49533;-34.520;150.798;2023-12-14T01:29:55;99289.22;;;30.00;45.17
63399;BME280;49533;-34.520;150.798;2023-12-14T01:32:22;99342.22;;;30.31;45.78
63399;BME280;49533;-34.520;150.798;2023-12-14T01:34:49;99334.13;;;30.33;45.67
63399;BME280;49533;-34.520;150.798;2023-12-14T01:37:16;99331.63;;;30.36;45.21
63399;BME280;49533;-34.520;150.798;2023-12-14T01:39:44;99277.81;;;30.04;45.36
63399;BME280;49533;-34.520;150.798;2023-12-14T01:42:11;99291.94;;;30.19;44.75
63399;BME280;49533;-34.520;150.798;2023-12-14T01:44:38;99286.84;;;30.17;44.31
63399;BME280;49533;-34.520;150.798;2023-12-14T01:47:05;99320.88;;;30.34;45.02
63399;BME280;49533;-34.520;150.798;2023-12-14T01:49:33;99318.69;;;30.38;44.46
63399;BME280;49533;-34.520;150.798;2023-12-14T01:52:00;99315.84;;;30.47;43.93
63399;BME280;49533;-34.520;150.798;2023-12-14T01:54:27;99305.72;;;30.50;43.72
63399;BME280;49533;-34.520;150.798;2023-12-14T01:56:54;99300.41;;;30.52;43.76
63399;BME280;49533;-34.520;150.798;2023-12-14T01:59:21;99275.94;;;30.28;43.37
63399;BME280;49533;-34.520;150.798;2023-12-14T02:01:53;99316.28;;;30.55;43.41
63399;BME280;49533;-34.520;150.798;2023-12-14T02:04:24;99274.94;;;30.41;43.15
63399;BME280;49533;-34.520;150.798;2023-12-14T02:06:52;99263.75;;;30.41;41.88
63399;BME280;49533;-34.520;150.798;2023-12-14T02:09:19;99289.97;;;30.52;40.74
63399;BME280;49533;-34.520;150.798;2023-12-14T02:11:46;99274.31;;;30.46;40.06
63399;BME280;49533;-34.520;150.798;2023-12-14T02:14:13;99274.31;;;30.46;40.21
63399;BME280;49533;-34.520;150.798;2023-12-14T02:16:40;99301.78;;;30.66;39.53
63399;BME280;49533;-34.520;150.798;2023-12-14T02:19:08;99285.09;;;30.62;38.54
63399;BME280;49533;-34.520;150.798;2023-12-14T02:21:35;99303.13;;;30.70;38.77
63399;BME280;49533;-34.520;150.798;2023-12-14T02:24:02;99190.44;;;29.90;38.04
63399;BME280;49533;-34.520;150.798;2023-12-14T02:26:30;99298.59;;;30.73;38.43
63399;BME280;49533;-34.520;150.798;2023-12-14T02:28:57;99234.94;;;30.40;38.64
63399;BME280;49533;-34.520;150.798;2023-12-14T02:31:24;99266.44;;;30.59;38.43
63399;BME280;49533;-34.520;150.798;2023-12-14T02:33:51;99288.75;;;30.77;38.60
63399;BME280;49533;-34.520;150.798;2023-12-14T02:36:19;99239.38;;;30.56;38.97
63399;BME280;49533;-34.520;150.798;2023-12-14T02:38:46;99251.78;;;30.64;38.39
63399;BME280;49533;-34.520;150.798;2023-12-14T02:41:13;99265.72;;;30.83;38.74
63399;BME280;49533;-34.520;150.798;2023-12-14T02:43:41;99269.78;;;30.72;38.18
63399;BME280;49533;-34.520;150.798;2023-12-14T02:46:09;99220.22;;;30.54;38.55
63399;BME280;49533;-34.520;150.798;2023-12-14T02:48:38;99247.56;;;30.69;38.14
63399;BME280;49533;-34.520;150.798;2023-12-14T02:51:11;99247.78;;;30.80;37.24
63399;BME280;49533;-34.520;150.798;2023-12-14T02:53:39;99231.97;;;30.68;37.19
63399;BME280;49533;-34.520;150.798;2023-12-14T02:56:06;99227.09;;;30.77;35.29
63399;BME280;49533;-34.520;150.798;2023-12-14T02:58:33;99280.38;;;31.26;34.57
63399;BME280;49533;-34.520;150.798;2023-12-14T03:01:00;99261.56;;;31.41;35.37
63399;BME280;49533;-34.520;150.798;2023-12-14T03:03:27;99249.59;;;31.55;34.62
63399;BME280;49533;-34.520;150.798;2023-12-14T03:05:55;99238.75;;;31.48;34.29
63399;BME280;49533;-34.520;150.798;2023-12-14T03:08:22;99226.78;;;31.62;34.08
63399;BME280;49533;-34.520;150.798;2023-12-14T03:10:49;99256.44;;;31.93;34.51
63399;BME280;49533;-34.520;150.798;2023-12-14T03:13:16;99217.00;;;31.73;33.86
63399;BME280;49533;-34.520;150.798;2023-12-14T03:15:43;99248.47;;;32.07;33.38
63399;BME280;49533;-34.520;150.798;2023-12-14T03:18:12;99228.34;;;31.93;32.95
63399;BME280;49533;-34.520;150.798;2023-12-14T03:20:39;99263.06;;;32.25;32.66
63399;BME280;49533;-34.520;150.798;2023-12-14T03:23:06;99239.06;;;32.10;31.91
63399;BME280;49533;-34.520;150.798;2023-12-14T03:25:33;99235.88;;;32.17;31.38
63399;BME280;49533;-34.520;150.798;2023-12-14T03:28:01;99209.00;;;32.16;31.11
63399;BME280;49533;-34.520;150.798;2023-12-14T03:30:28;99240.63;;;32.46;31.77
63399;BME280;49533;-34.520;150.798;2023-12-14T03:32:55;99219.75;;;32.32;31.44
63399;BME280;49533;-34.520;150.798;2023-12-14T03:35:22;99218.19;;;32.31;31.45
63399;BME280;49533;-34.520;150.798;2023-12-14T03:37:49;99233.72;;;32.26;31.15
63399;BME280;49533;-34.520;150.798;2023-12-14T03:40:16;99255.97;;;32.45;30.97
63399;BME280;49533;-34.520;150.798;2023-12-14T03:42:43;99235.69;;;32.41;30.58
63399;BME280;49533;-34.520;150.798;2023-12-14T03:45:10;99216.78;;;32.41;30.69
63399;BME280;49533;-34.520;150.798;2023-12-14T03:47:37;99253.75;;;32.69;30.96
63399;BME280;49533;-34.520;150.798;2023-12-14T03:50:05;99254.56;;;32.70;31.30
63399;BME280;49533;-34.520;150.798;2023-12-14T03:52:32;99228.78;;;32.57;31.07
63399;BME280;49533;-34.520;150.798;2023-12-14T03:55:00;99234.66;;;32.74;31.52
63399;BME280;49533;-34.520;150.798;2023-12-14T03:57:27;99209.72;;;32.46;31.61
63399;BME280;49533;-34.520;150.798;2023-12-14T03:59:54;99213.19;;;32.56;31.76
63399;BME280;49533;-34.520;150.798;2023-12-14T04:02:21;99200.91;;;32.53;32.82
63399;BME280;49533;-34.520;150.798;2023-12-14T04:04:48;99224.59;;;32.67;32.61
63399;BME280;49533;-34.520;150.798;2023-12-14T04:07:15;99225.16;;;32.71;32.87
63399;BME280;49533;-34.520;150.798;2023-12-14T04:09:44;99251.47;;;32.88;33.31
63399;BME280;49533;-34.520;150.798;2023-12-14T04:12:12;99205.19;;;32.69;32.96
63399;BME280;49533;-34.520;150.798;2023-12-14T04:14:39;99228.13;;;32.82;33.00
63399;BME280;49533;-34.520;150.798;2023-12-14T04:17:06;99243.59;;;32.92;33.61
63399;BME280;49533;-34.520;150.798;2023-12-14T04:19:33;99196.75;;;32.69;34.22
63399;BME280;49533;-34.520;150.798;2023-12-14T04:22:00;99242.88;;;32.98;34.20
63399;BME280;49533;-34.520;150.798;2023-12-14T04:24:27;99200.69;;;32.77;33.46
63399;BME280;49533;-34.520;150.798;2023-12-14T04:26:54;99201.03;;;32.85;33.30
63399;BME280;49533;-34.520;150.798;2023-12-14T04:29:21;99218.84;;;32.97;32.84
63399;BME280;49533;-34.520;150.798;2023-12-14T04:31:48;99193.59;;;32.82;33.09
63399;BME280;49533;-34.520;150.798;2023-12-14T04:34:15;99173.97;;;32.67;33.32
63399;BME280;49533;-34.520;150.798;2023-12-14T04:36:47;99190.78;;;32.82;33.34
63399;BME280;49533;-34.520;150.798;2023-12-14T04:39:14;99212.97;;;33.00;33.41
63399;BME280;49533;-34.520;150.798;2023-12-14T04:41:43;99222.09;;;33.10;33.55
63399;BME280;49533;-34.520;150.798;2023-12-14T04:44:10;99213.16;;;33.11;33.59
63399;BME280;49533;-34.520;150.798;2023-12-14T04:46:38;99170.91;;;32.85;33.60
63399;BME280;49533;-34.520;150.798;2023-12-14T04:49:05;99175.94;;;32.81;33.60
63399;BME280;49533;-34.520;150.798;2023-12-14T04:51:32;99203.72;;;33.15;33.43
63399;BME280;49533;-34.520;150.798;2023-12-14T04:53:59;99205.25;;;33.16;32.92
63399;BME280;49533;-34.520;150.798;2023-12-14T04:56:26;99150.63;;;32.81;32.27
63399;BME280;49533;-34.520;150.798;2023-12-14T04:58:53;99161.75;;;32.90;32.39
63399;BME280;49533;-34.520;150.798;2023-12-14T05:01:20;99192.91;;;33.07;32.82
63399;BME280;49533;-34.520;150.798;2023-12-14T05:03:47;99175.97;;;33.02;32.64
63399;BME280;49533;-34.520;150.798;2023-12-14T05:06:14;99155.84;;;32.88;32.54
63399;BME280;49533;-34.520;150.798;2023-12-14T05:08:41;99175.72;;;33.05;32.30
63399;BME280;49533;-34.520;150.798;2023-12-14T05:11:08;99165.94;;;33.01;32.61
63399;BME280;49533;-34.520;150.798;2023-12-14T05:13:36;99199.44;;;33.19;32.25
63399;BME280;49533;-34.520;150.798;2023-12-14T05:16:03;99191.28;;;33.21;32.49
63399;BME280;49533;-34.520;150.798;2023-12-14T05:18:30;99188.19;;;33.19;32.48
63399;BME280;49533;-34.520;150.798;2023-12-14T05:20:57;99148.66;;;32.87;32.55
63399;BME280;49533;-34.520;150.798;2023-12-14T05:23:24;99150.75;;;32.92;32.17
63399;BME280;49533;-34.520;150.798;2023-12-14T05:25:51;99175.34;;;33.18;31.49
63399;BME280;49533;-34.520;150.798;2023-12-14T05:28:18;99154.34;;;32.93;31.83
63399;BME280;49533;-34.520;150.798;2023-12-14T05:30:46;99164.56;;;33.11;31.64
63399;BME280;49533;-34.520;150.798;2023-12-14T05:33:13;99150.03;;;32.98;31.40
63399;BME280;49533;-34.520;150.798;2023-12-14T05:35:40;99172.06;;;33.20;31.48
63399;BME280;49533;-34.520;150.798;2023-12-14T05:38:07;99167.19;;;33.20;32.32
63399;BME280;49533;-34.520;150.798;2023-12-14T05:40:34;99122.78;;;32.83;32.13
63399;BME280;49533;-34.520;150.798;2023-12-14T05:43:01;99141.34;;;32.96;32.50
63399;BME280;49533;-34.520;150.798;2023-12-14T05:45:28;99171.28;;;33.19;32.02
63399;BME280;49533;-34.520;150.798;2023-12-14T05:47:57;99139.06;;;33.00;32.15
63399;BME280;49533;-34.520;150.798;2023-12-14T05:50:26;99174.09;;;33.19;31.67
63399;BME280;49533;-34.520;150.798;2023-12-14T05:52:54;99157.22;;;33.19;31.30
63399;BME280;49533;-34.520;150.798;2023-12-14T05:55:21;99156.13;;;33.11;31.78
63399;BME280;49533;-34.520;150.798;2023-12-14T05:57:49;99170.25;;;33.17;31.92
63399;BME280;49533;-34.520;150.798;2023-12-14T06:00:18;99131.63;;;32.97;32.06
63399;BME280;49533;-34.520;150.798;2023-12-14T06:02:45;99131.72;;;32.82;31.66
63399;BME280;49533;-34.520;150.798;2023-12-14T06:05:12;99177.13;;;33.16;31.85
63399;BME280;49533;-34.520;150.798;2023-12-14T06:07:39;99180.44;;;33.14;32.04
63399;BME280;49533;-34.520;150.798;2023-12-14T06:10:07;99169.63;;;33.07;32.15
63399;BME280;49533;-34.520;150.798;2023-12-14T06:12:35;99115.84;;;32.79;32.51
63399;BME280;49533;-34.520;150.798;2023-12-14T06:15:02;99124.31;;;32.84;32.52
63399;BME280;49533;-34.520;150.798;2023-12-14T06:17:29;99157.78;;;33.03;32.37
63399;BME280;49533;-34.520;150.798;2023-12-14T06:19:58;99106.50;;;32.67;32.22
63399;BME280;49533;-34.520;150.798;2023-12-14T06:22:25;99151.81;;;32.95;32.16
63399;BME280;49533;-34.520;150.798;2023-12-14T06:24:52;99161.88;;;33.02;31.61
63399;BME280;49533;-34.520;150.798;2023-12-14T06:27:19;99188.31;;;33.10;31.27
63399;BME280;49533;-34.520;150.798;2023-12-14T06:29:49;99179.13;;;33.09;30.72
63399;BME280;49533;-34.520;150.798;2023-12-14T06:32:16;99158.66;;;32.88;31.12
63399;BME280;49533;-34.520;150.798;2023-12-14T06:34:43;99148.09;;;32.83;31.01
63399;BME280;49533;-34.520;150.798;2023-12-14T06:37:10;99187.78;;;33.06;30.88
63399;BME280;49533;-34.520;150.798;2023-12-14T06:39:37;99179.44;;;32.97;30.85
63399;BME280;49533;-34.520;150.798;2023-12-14T06:42:04;99197.19;;;33.03;31.10
63399;BME280;49533;-34.520;150.798;2023-12-14T06:44:31;99169.13;;;32.88;31.43
63399;BME280;49533;-34.520;150.798;2023-12-14T06:46:58;99158.94;;;32.70;31.70
63399;BME280;49533;-34.520;150.798;2023-12-14T06:49:26;99187.84;;;32.91;31.59
63399;BME280;49533;-34.520;150.798;2023-12-14T06:51:54;99210.63;;;32.93;31.78
63399;BME280;49533;-34.520;150.798;2023-12-14T06:54:21;99193.47;;;32.91;31.51
63399;BME280;49533;-34.520;150.798;2023-12-14T06:56:48;99209.72;;;33.02;31.10
63399;BME280;49533;-34.520;150.798;2023-12-14T06:59:15;99221.25;;;33.04;30.29
63399;BME280;49533;-34.520;150.798;2023-12-14T07:01:42;99225.31;;;33.03;30.91
63399;BME280;49533;-34.520;150.798;2023-12-14T07:04:09;99221.66;;;32.97;31.29
63399;BME280;49533;-34.520;150.798;2023-12-14T07:06:36;99228.47;;;32.90;31.45
63399;BME280;49533;-34.520;150.798;2023-12-14T07:09:03;99232.25;;;32.87;31.44
63399;BME280;49533;-34.520;150.798;2023-12-14T07:11:31;99190.63;;;32.50;32.08
63399;BME280;49533;-34.520;150.798;2023-12-14T07:13:58;99239.00;;;32.75;31.11
63399;BME280;49533;-34.520;150.798;2023-12-14T07:16:25;99178.78;;;32.46;31.13
63399;BME280;49533;-34.520;150.798;2023-12-14T07:18:52;99238.66;;;32.87;31.19
63399;BME280;49533;-34.520;150.798;2023-12-14T07:21:19;99249.22;;;32.92;31.35
63399;BME280;49533;-34.520;150.798;2023-12-14T07:23:48;99235.66;;;32.91;31.70
63399;BME280;49533;-34.520;150.798;2023-12-14T07:26:15;99235.16;;;32.92;32.16
63399;BME280;49533;-34.520;150.798;2023-12-14T07:28:42;99278.66;;;33.12;31.59
63399;BME280;49533;-34.520;150.798;2023-12-14T07:31:09;99262.75;;;33.09;30.41
63399;BME280;49533;-34.520;150.798;2023-12-14T07:33:36;99267.09;;;33.10;31.41
63399;BME280;49533;-34.520;150.798;2023-12-14T07:36:04;99262.19;;;33.05;31.23
63399;BME280;49533;-34.520;150.798;2023-12-14T07:38:38;99269.16;;;33.09;31.15
63399;BME280;49533;-34.520;150.798;2023-12-14T07:41:05;99271.50;;;33.11;31.09
63399;BME280;49533;-34.520;150.798;2023-12-14T07:43:32;99225.03;;;32.80;31.31
63399;BME280;49533;-34.520;150.798;2023-12-14T07:45:59;99282.75;;;33.11;31.76
63399;BME280;49533;-34.520;150.798;2023-12-14T07:48:26;99250.00;;;32.93;31.47
63399;BME280;49533;-34.520;150.798;2023-12-14T07:50:55;99291.94;;;33.11;31.52
63399;BME280;49533;-34.520;150.798;2023-12-14T07:53:22;99305.09;;;33.20;31.39
63399;BME280;49533;-34.520;150.798;2023-12-14T07:55:49;99314.31;;;33.21;31.24
63399;BME280;49533;-34.520;150.798;2023-12-14T07:58:16;99295.66;;;33.03;31.65
63399;BME280;49533;-34.520;150.798;2023-12-14T08:00:43;99288.19;;;33.00;31.27
63399;BME280;49533;-34.520;150.798;2023-12-14T08:03:10;99278.63;;;32.91;31.60
63399;BME280;49533;-34.520;150.798;2023-12-14T08:05:37;99322.13;;;33.11;31.60
63399;BME280;49533;-34.520;150.798;2023-12-14T08:08:04;99332.19;;;33.18;31.64
63399;BME280;49533;-34.520;150.798;2023-12-14T08:10:32;99338.59;;;33.18;31.49
63399;BME280;49533;-34.520;150.798;2023-12-14T08:12:59;99334.22;;;33.17;31.29
63399;BME280;49533;-34.520;150.798;2023-12-14T08:15:26;99320.69;;;33.01;31.56
63399;BME280;49533;-34.520;150.798;2023-12-14T08:17:53;99336.91;;;33.06;31.66
63399;BME280;49533;-34.520;150.798;2023-12-14T08:20:20;99330.78;;;32.92;32.30
63399;BME280;49533;-34.520;150.798;2023-12-14T08:22:48;99358.13;;;33.07;31.56
63399;BME280;49533;-34.520;150.798;2023-12-14T08:25:15;99356.09;;;32.92;31.50
63399;BME280;49533;-34.520;150.798;2023-12-14T08:27:42;99358.22;;;32.98;30.94
63399;BME280;49533;-34.520;150.798;2023-12-14T08:30:13;99360.97;;;32.92;30.89
63399;BME280;49533;-34.520;150.798;2023-12-14T08:32:41;99392.88;;;33.04;31.51
63399;BME280;49533;-34.520;150.798;2023-12-14T08:35:08;99376.09;;;32.95;31.48
63399;BME280;49533;-34.520;150.798;2023-12-14T08:37:36;99401.50;;;33.00;31.40
63399;BME280;49533;-34.520;150.798;2023-12-14T08:40:04;99402.19;;;32.95;31.68
63399;BME280;49533;-34.520;150.798;2023-12-14T08:42:31;99371.69;;;32.73;31.83
63399;BME280;49533;-34.520;150.798;2023-12-14T08:44:58;99366.38;;;32.60;31.75
63399;BME280;49533;-34.520;150.798;2023-12-14T08:47:26;99431.59;;;32.94;31.53
63399;BME280;49533;-34.520;150.798;2023-12-14T08:49:53;99418.81;;;32.78;31.17
63399;BME280;49533;-34.520;150.798;2023-12-14T08:52:20;99393.22;;;32.61;30.94
63399;BME280;49533;-34.520;150.798;2023-12-14T08:54:47;99445.56;;;32.88;31.76
63399;BME280;49533;-34.520;150.798;2023-12-14T08:57:14;99449.06;;;32.83;32.57
63399;BME280;49533;-34.520;150.798;2023-12-14T08:59:41;99460.63;;;32.85;32.91
63399;BME280;49533;-34.520;150.798;2023-12-14T09:02:08;99420.19;;;32.53;33.26
63399;BME280;49533;-34.520;150.798;2023-12-14T09:04:35;99478.75;;;32.84;33.57
63399;BME280;49533;-34.520;150.798;2023-12-14T09:07:02;99485.63;;;32.83;33.77
63399;BME280;49533;-34.520;150.798;2023-12-14T09:09:30;99481.84;;;32.72;34.36
63399;BME280;49533;-34.520;150.798;2023-12-14T09:11:58;99498.81;;;32.77;34.56
63399;BME280;49533;-34.520;150.798;2023-12-14T09:14:25;99474.28;;;32.63;34.84
63399;BME280;49533;-34.520;150.798;2023-12-14T09:16:53;99482.72;;;32.63;35.68
63399;BME280;49533;-34.520;150.798;2023-12-14T09:19:20;99485.44;;;32.57;35.51
63399;BME280;49533;-34.520;150.798;2023-12-14T09:21:47;99488.94;;;32.52;36.10
63399;BME280;49533;-34.520;150.798;2023-12-14T09:24:14;99504.16;;;32.60;36.34
63399;BME280;49533;-34.520;150.798;2023-12-14T09:26:41;99522.00;;;32.57;36.27
63399;BME280;49533;-34.520;150.798;2023-12-14T09:29:08;99517.81;;;32.53;36.44
63399;BME280;49533;-34.520;150.798;2023-12-14T09:31:35;99526.31;;;32.43;36.89
63399;BME280;49533;-34.520;150.798;2023-12-14T09:34:03;99523.84;;;32.36;36.99
63399;BME280;49533;-34.520;150.798;2023-12-14T09:36:30;99500.06;;;32.08;37.33
63399;BME280;49533;-34.520;150.798;2023-12-14T09:38:57;99543.88;;;32.14;37.04
63399;BME280;49533;-34.520;150.798;2023-12-14T09:41:24;99570.97;;;32.26;37.87
63399;BME280;49533;-34.520;150.798;2023-12-14T09:43:52;99537.31;;;31.93;37.92
63399;BME280;49533;-34.520;150.798;2023-12-14T09:46:21;99572.03;;;32.05;38.32
63399;BME280;49533;-34.520;150.798;2023-12-14T09:48:50;99545.16;;;31.80;37.72
63399;BME280;49533;-34.520;150.798;2023-12-14T09:51:17;99579.72;;;31.95;38.13
63399;BME280;49533;-34.520;150.798;2023-12-14T09:53:44;99598.59;;;32.04;38.06
63399;BME280;49533;-34.520;150.798;2023-12-14T09:56:12;99571.56;;;31.73;38.52
63399;BME280;49533;-34.520;150.798;2023-12-14T09:58:39;99587.00;;;31.78;38.07
63399;BME280;49533;-34.520;150.798;2023-12-14T10:01:26;99630.28;;;31.95;39.08
63399;BME280;49533;-34.520;150.798;2023-12-14T10:04:16;99625.59;;;31.92;38.44
63399;BME280;49533;-34.520;150.798;2023-12-14T10:06:45;99636.25;;;31.88;38.69
63399;BME280;49533;-34.520;150.798;2023-12-14T10:09:13;99638.91;;;31.82;38.87
63399;BME280;49533;-34.520;150.798;2023-12-14T10:11:43;99631.78;;;31.72;39.12
63399;BME280;49533;-34.520;150.798;2023-12-14T10:14:23;99647.25;;;31.68;39.61
63399;BME280;49533;-34.520;150.798;2023-12-14T10:16:54;99628.44;;;31.50;39.02
63399;BME280;49533;-34.520;150.798;2023-12-14T10:19:21;99631.72;;;31.48;39.36
63399;BME280;49533;-34.520;150.798;2023-12-14T10:21:49;99669.28;;;31.60;39.27
63399;BME280;49533;-34.520;150.798;2023-12-14T10:24:17;99658.06;;;31.51;39.29
63399;BME280;49533;-34.520;150.798;2023-12-14T10:26:47;99667.44;;;31.48;39.63
63399;BME280;49533;-34.520;150.798;2023-12-14T10:29:15;99682.25;;;31.48;39.80
63399;BME280;49533;-34.520;150.798;2023-12-14T10:31:43;99669.63;;;31.25;40.20
63399;BME280;49533;-34.520;150.798;2023-12-14T10:34:10;99686.44;;;31.34;39.82
63399;BME280;49533;-34.520;150.798;2023-12-14T10:36:39;99657.66;;;31.06;40.25
63399;BME280;49533;-34.520;150.798;2023-12-14T10:39:08;99714.81;;;31.36;39.90
63399;BME280;49533;-34.520;150.798;2023-12-14T10:41:37;99706.56;;;31.24;40.44
63399;BME280;49533;-34.520;150.798;2023-12-14T10:44:06;99722.31;;;31.30;40.25
63399;BME280;49533;-34.520;150.798;2023-12-14T10:46:34;99708.47;;;31.17;40.54
63399;BME280;49533;-34.520;150.798;2023-12-14T10:49:01;99723.59;;;31.20;40.82
63399;BME280;49533;-34.520;150.798;2023-12-14T10:51:29;99732.00;;;31.20;40.68
63399;BME280;49533;-34.520;150.798;2023-12-14T10:53:56;99742.13;;;31.17;41.12
63399;BME280;49533;-34.520;150.798;2023-12-14T10:56:23;99743.84;;;31.15;40.88
63399;BME280;49533;-34.520;150.798;2023-12-14T10:58:56;99752.72;;;31.13;41.11
63399;BME280;49533;-34.520;150.798;2023-12-14T11:01:24;99705.31;;;30.79;40.61
63399;BME280;49533;-34.520;150.798;2023-12-14T11:03:56;99693.75;;;30.67;41.03
63399;BME280;49533;-34.520;150.798;2023-12-14T11:09:06;99705.75;;;30.59;41.05
63399;BME280;49533;-34.520;150.798;2023-12-14T11:14:29;99742.38;;;30.64;40.79
63399;BME280;49533;-34.520;150.798;2023-12-14T11:17:10;99771.81;;;30.78;41.31
63399;BME280;49533;-34.520;150.798;2023-12-14T11:19:38;99790.41;;;30.85;41.18
63399;BME280;49533;-34.520;150.798;2023-12-14T11:22:12;99798.81;;;30.85;40.71
63399;BME280;49533;-34.520;150.798;2023-12-14T11:24:51;99793.03;;;30.79;41.44
63399;BME280;49533;-34.520;150.798;2023-12-14T11:27:28;99740.25;;;30.37;41.46
63399;BME280;49533;-34.520;150.798;2023-12-14T11:29:56;99791.56;;;30.65;41.58
63399;BME280;49533;-34.520;150.798;2023-12-14T11:32:26;99796.88;;;30.63;41.55
63399;BME280;49533;-34.520;150.798;2023-12-14T11:34:53;99813.09;;;30.68;41.90
63399;BME280;49533;-34.520;150.798;2023-12-14T11:37:22;99772.00;;;30.34;42.10
63399;BME280;49533;-34.520;150.798;2023-12-14T11:39:50;99814.59;;;30.60;41.49
63399;BME280;49533;-34.520;150.798;2023-12-14T11:42:18;99810.84;;;30.54;41.81
63399;BME280;49533;-34.520;150.798;2023-12-14T11:44:45;99784.00;;;30.34;42.17
63399;BME280;49533;-34.520;150.798;2023-12-14T11:47:13;99802.22;;;30.39;41.73
63399;BME280;49533;-34.520;150.798;2023-12-14T11:49:40;99773.22;;;30.24;42.17
63399;BME280;49533;-34.520;150.798;2023-12-14T11:52:07;99782.19;;;30.19;42.24
63399;BME280;49533;-34.520;150.798;2023-12-14T11:54:36;99741.28;;;29.90;42.13
63399;BME280;49533;-34.520;150.798;2023-12-14T11:57:03;99830.44;;;30.45;41.87
63399;BME280;49533;-34.520;150.798;2023-12-14T11:59:31;99825.44;;;30.40;41.95
63399;BME280;49533;-34.520;150.798;2023-12-14T12:02:00;99799.31;;;30.21;42.45
63399;BME280;49533;-34.520;150.798;2023-12-14T12:04:28;99792.91;;;30.11;42.51
63399;BME280;49533;-34.520;150.798;2023-12-14T12:07:03;99808.34;;;30.16;42.49
63399;BME280;49533;-34.520;150.798;2023-12-14T12:09:39;99815.63;;;30.13;42.55
63399;BME280;49533;-34.520;150.798;2023-12-14T12:12:09;99833.41;;;30.19;42.44
63399;BME280;49533;-34.520;150.798;2023-12-14T12:14:38;99817.78;;;30.09;42.07
63399;BME280;49533;-34.520;150.798;2023-12-14T12:17:06;99842.13;;;30.21;42.66
63399;BME280;49533;-34.520;150.798;2023-12-14T12:19:37;99838.03;;;30.13;42.66
63399;BME280;49533;-34.520;150.798;2023-12-14T12:22:04;99774.59;;;29.66;42.43
63399;BME280;49533;-34.520;150.798;2023-12-14T12:24:31;99849.25;;;30.13;42.85
63399;BME280;49533;-34.520;150.798;2023-12-14T12:26:59;99813.91;;;29.84;42.73
63399;BME280;49533;-34.520;150.798;2023-12-14T12:29:26;99854.53;;;30.11;42.46
63399;BME280;49533;-34.520;150.798;2023-12-14T12:31:53;99851.09;;;30.07;42.60
63399;BME280;49533;-34.520;150.798;2023-12-14T12:34:20;99806.81;;;29.71;42.41
63399;BME280;49533;-34.520;150.798;2023-12-14T12:36:47;99813.22;;;29.71;42.91
63399;BME280;49533;-34.520;150.798;2023-12-14T12:39:14;99821.59;;;29.71;42.91